Impacts METAR Board INFO
IDs:

KLGA - New York/La Guardia, NY, US

Updated at: 0731 UTC 20 Nov 2017
Potential Impact None Slight Moderate High
Time19/19Z 19/20Z 19/21Z 19/22Z 19/23Z 20/00Z 20/01Z 20/02Z 20/03Z 20/04Z 20/05Z 20/06Z 20/07Z
VIS10 10 10 10 10 10 10 10 10 10 10 10 10
CIG50 49 -- -- -- -- 75 80 -- 47 90 90 75
CoverBKNBKNSCTSCTSCTSCTBKNOVCSCTOVCOVCBKNOVC
FltCatVFRVFRVFRVFRVFRVFRVFRVFRVFRVFRVFRVFRVFR
WX-------------------RA------
WDir300310320300300300300290280290280270280
WSpd28 17 25 17 14 11 12 12 10 11 13 14 13
WGst36 30 33 24 -- -- -- 20 21 -- 20 -- --
Raw hourly METARs
KLGA 191851Z 30028G36KT 10SM FEW045 BKN050 10/M01 A2952 RMK AO2 PK WND 31037/1833 SLP996 T01001006
KLGA 191951Z 31017G30KT 10SM FEW040 BKN049 09/00 A2956 RMK AO2 PK WND 28038/1852 SLP008 T00940000
KLGA 192051Z 32025G33KT 10SM FEW040 SCT048 09/M02 A2959 RMK AO2 PK WND 30035/2028 SLP021 T00891017 53034
KLGA 192151Z 30017G24KT 10SM SCT050 08/M03 A2962 RMK AO2 PK WND 33028/2122 SLP031 T00831028
KLGA 192251Z 30014KT 10SM SCT060 08/M03 A2966 RMK AO2 PK WND 31029/2211 SLP045 T00831028
KLGA 192351Z 30011KT 10SM SCT070 08/M03 A2969 RMK AO2 SLP053 T00831033 10106 20078 51032
KLGA 200051Z 30012KT 10SM BKN075 08/M03 A2971 RMK AO2 SLP061 T00781028
KLGA 200151Z 29012G20KT 10SM OVC080 08/M03 A2973 RMK AO2 SLP068 T00781028
KLGA 200251Z 28010G21KT 10SM FEW050 SCT095 07/M02 A2975 RMK AO2 SLP074 T00721017 51021
KLGA 200351Z 29011KT 10SM -RA SCT028 BKN047 OVC060 04/01 A2978 RMK AO2 PK WND 30039/0323 RAB23 CIG 027 R22 SW SLP085 P0000 T00440006
KLGA 200451Z 28013G20KT 10SM OVC090 06/M01 A2979 RMK AO2 RAE0352 SLP089 P0000 T00561006 401560044
KLGA 200551Z 27014KT 10SM SCT070 BKN090 06/M02 A2981 RMK AO2 SLP095 60000 T00561022 10083 20044 53010
KLGA 200651Z 28013KT 10SM OVC075 06/M03 A2984 RMK AO2 SLP105 T00561033